Time;durP1;ratioP1;P1;durP2;ratioP2;P2;SDS_P1;SDS_P2;PMS_P1;PMS_P2;Temp;Humidity;BMP_temperature;BMP_pressure;BME280_temperature;BME280_humidity;BME280_pressure;Samples;Min_cycle;Max_cycle;Signal;HPM_P1;HPM_P2
2022/11/24 00:08:39;;;;;;;9.60;1.63;;;;;;;;;;6123145;23;20004;-96
2022/11/24 00:24:23;;;;;;;9.25;1.40;;;;;;;;;;6064500;23;20096;-95
2022/11/24 00:27:21;;;;;;;7.93;1.02;;;;;;;;;;6035187;23;20142;-96
2022/11/24 00:42:28;;;;;;;11.90;1.40;;;;;;;;;;6008461;23;20014;-95
2022/11/24 00:58:06;;;;;;;;;;;;;;;;;;;;;
2022/11/24 01:04:32;;;;;;;;;;;;;;;;;;;;;
2022/11/24 01:07:36;;;;;;;;;;;;;;;;;;;;;
2022/11/24 01:14:00;;;;;;;8.23;1.10;;;;;;;;;;5812420;24;20057;-95
2022/11/24 01:23:39;;;;;;;;;;;;;;;;;;;;;
2022/11/24 01:26:41;;;;;;;8.32;1.13;;;;;;;;;;5895724;24;20092;-94
2022/11/24 01:38:50;;;;;;;14.55;1.90;;;;;;;;;;5871823;24;20111;-95
2022/11/24 02:03:55;;;;;;;7.35;1.20;;;;;;;;;;6086927;23;20081;-95
2022/11/24 02:13:30;;;;;;;;;;;;;;;;;;;;;
2022/11/24 02:23:23;;;;;;;6.72;1.13;;;;;;;;;;6064681;23;20029;-95
2022/11/24 02:32:47;;;;;;;;;;;;;;;;;;;;;
2022/11/24 02:39:03;;;;;;;12.45;1.90;;;;;;;;;;6085765;23;20065;-95
2022/11/24 02:45:56;;;;;;;;;;;;;;;;;;;;;
2022/11/24 02:48:23;;;;;;;9.93;1.50;;;;;;;;;;6096993;23;20663;-95
2022/11/24 02:51:37;;;;;;;;;;;;;;;;;;;;;
2022/11/24 03:02:40;;;;;;;15.15;2.25;;;;;;;;;;6225922;22;20553;-93
2022/11/24 03:05:10;;;;;;;11.35;1.65;;;;;;;;;;6204090;23;20004;-90
2022/11/24 03:07:38;;;;;;;9.68;2.00;;;;;;;;;;6207129;23;20267;-92
2022/11/24 03:10:04;;;;;;;10.45;1.77;;;;;;;;;;6183440;23;20380;-92
2022/11/24 03:12:29;;;;;;;13.52;2.10;;;;;;;;;;6183138;23;20040;-91
2022/11/24 03:14:56;;;;;;;14.77;1.83;;;;;;;;;;6184111;23;20005;-92
2022/11/24 03:17:24;;;;;;;13.50;1.80;;;;;;;;;;6184246;23;20087;-91
2022/11/24 03:19:55;;;;;;;9.00;1.83;;;;;;;;;;6184928;23;20015;-92
2022/11/24 03:22:35;;;;;;;10.57;1.70;;;;;;;;;;6185678;23;20005;-93
2022/11/24 03:25:03;;;;;;;12.55;1.73;;;;;;;;;;6185639;23;19997;-92
2022/11/24 03:27:29;;;;;;;11.48;2.20;;;;;;;;;;6183262;23;19997;-94
2022/11/24 03:30:07;;;;;;;14.43;1.95;;;;;;;;;;6182712;23;20040;-92
2022/11/24 03:32:40;;;;;;;12.65;2.08;;;;;;;;;;6183651;23;20003;-93
2022/11/24 03:35:09;;;;;;;12.10;1.70;;;;;;;;;;6189273;22;20012;-91
2022/11/24 03:37:38;;;;;;;11.88;2.10;;;;;;;;;;6245646;22;20015;-94
2022/11/24 03:40:08;;;;;;;11.27;1.70;;;;;;;;;;6249674;22;19996;-94
2022/11/24 03:42:37;;;;;;;9.82;1.67;;;;;;;;;;6272302;22;19999;-94
2022/11/24 03:45:02;;;;;;;12.60;2.13;;;;;;;;;;6271336;22;20007;-94
2022/11/24 03:47:28;;;;;;;13.70;1.80;;;;;;;;;;6272340;22;20046;-94
2022/11/24 03:49:55;;;;;;;11.02;1.85;;;;;;;;;;6272052;22;20316;-95
2022/11/24 03:52:25;;;;;;;15.10;2.15;;;;;;;;;;6270645;22;20011;-94
2022/11/24 03:54:54;;;;;;;10.40;2.08;;;;;;;;;;6273244;22;19999;-94
2022/11/24 03:57:25;;;;;;;9.70;1.67;;;;;;;;;;6273375;22;20043;-94
2022/11/24 03:59:52;;;;;;;18.08;2.47;;;;;;;;;;6271239;22;20002;-92
2022/11/24 04:02:20;;;;;;;14.35;1.63;;;;;;;;;;6271538;22;20023;-91
2022/11/24 04:04:49;;;;;;;11.52;2.15;;;;;;;;;;6273021;22;19996;-93
2022/11/24 04:07:15;;;;;;;11.25;2.00;;;;;;;;;;6271648;22;20074;-93
2022/11/24 04:09:46;;;;;;;16.83;2.22;;;;;;;;;;6271113;22;20041;-93
2022/11/24 04:14:55;;;;;;;11.52;1.83;;;;;;;;;;6272899;22;20026;-94
2022/11/24 04:17:28;;;;;;;13.30;2.10;;;;;;;;;;6272045;22;20388;-93
2022/11/24 04:19:58;;;;;;;13.63;1.67;;;;;;;;;;6271370;22;20039;-93
2022/11/24 04:22:24;;;;;;;13.25;1.60;;;;;;;;;;6272196;22;20065;-93
2022/11/24 04:24:52;;;;;;;9.95;1.85;;;;;;;;;;6271556;22;20425;-92
2022/11/24 04:27:31;;;;;;;11.13;2.45;;;;;;;;;;6273797;22;20000;-94
2022/11/24 04:29:56;;;;;;;9.50;1.40;;;;;;;;;;6271618;22;20011;-94
2022/11/24 04:32:23;;;;;;;13.75;2.03;;;;;;;;;;6271566;22;20646;-93
2022/11/24 04:34:48;;;;;;;11.82;1.70;;;;;;;;;;6271629;22;20011;-93
2022/11/24 04:37:24;;;;;;;9.93;1.40;;;;;;;;;;6271204;22;20033;-93
2022/11/24 04:39:53;;;;;;;14.50;1.98;;;;;;;;;;6272133;22;20011;-94
2022/11/24 04:42:21;;;;;;;12.55;2.05;;;;;;;;;;6271558;22;20003;-92
2022/11/24 04:44:50;;;;;;;15.52;2.45;;;;;;;;;;6271678;22;20008;-94
2022/11/24 04:47:33;;;;;;;11.75;1.60;;;;;;;;;;6270833;22;20054;-93
2022/11/24 04:50:03;;;;;;;11.57;1.83;;;;;;;;;;6272199;22;20035;-93
2022/11/24 04:52:29;;;;;;;13.25;2.03;;;;;;;;;;6270457;22;20014;-93
2022/11/24 04:54:54;;;;;;;11.95;1.92;;;;;;;;;;6271009;22;20003;-93
2022/11/24 04:57:29;;;;;;;13.23;1.27;;;;;;;;;;6272075;22;19999;-95
2022/11/24 05:00:00;;;;;;;15.20;2.00;;;;;;;;;;6271786;22;20105;-93
2022/11/24 05:02:46;;;;;;;13.73;1.75;;;;;;;;;;6270082;22;20023;-93
2022/11/24 05:05:12;;;;;;;11.75;1.30;;;;;;;;;;6271248;22;20544;-93
2022/11/24 05:07:37;;;;;;;11.25;1.60;;;;;;;;;;6269478;22;20069;-93
2022/11/24 05:12:55;;;;;;;10.80;2.13;;;;;;;;;;6273633;22;20046;-94
2022/11/24 05:15:27;;;;;;;13.65;1.40;;;;;;;;;;6271546;22;20003;-93
2022/11/24 05:17:55;;;;;;;11.07;1.60;;;;;;;;;;6271324;22;20404;-93
2022/11/24 05:20:39;;;;;;;10.18;1.25;;;;;;;;;;6271874;22;19996;-95
2022/11/24 05:23:06;;;;;;;6.95;1.45;;;;;;;;;;6271442;22;19996;-93
2022/11/24 05:25:34;;;;;;;9.85;1.73;;;;;;;;;;6270505;22;20004;-95
2022/11/24 05:28:01;;;;;;;13.00;2.08;;;;;;;;;;6271475;22;20622;-92
2022/11/24 05:30:27;;;;;;;13.00;1.63;;;;;;;;;;6270618;22;20114;-93
2022/11/24 05:33:06;;;;;;;13.65;1.88;;;;;;;;;;6271356;22;20007;-94
2022/11/24 05:35:36;;;;;;;8.40;2.05;;;;;;;;;;6270962;22;20088;-93
2022/11/24 05:38:06;;;;;;;11.68;1.70;;;;;;;;;;6269982;22;20508;-93
2022/11/24 05:40:59;;;;;;;12.18;1.77;;;;;;;;;;6270624;22;20338;-93
2022/11/24 05:43:27;;;;;;;9.93;1.47;;;;;;;;;;6267141;22;20421;-93
2022/11/24 05:45:53;;;;;;;18.08;2.22;;;;;;;;;;6271277;22;20082;-93
2022/11/24 05:51:07;;;;;;;10.50;2.00;;;;;;;;;;6273931;22;20378;-92
2022/11/24 05:53:38;;;;;;;14.43;1.92;;;;;;;;;;6271919;22;20034;-94
2022/11/24 05:56:19;;;;;;;10.93;1.80;;;;;;;;;;6272085;22;20018;-94
2022/11/24 05:58:48;;;;;;;11.30;1.83;;;;;;;;;;6271938;22;20067;-94
2022/11/24 06:01:22;;;;;;;15.48;1.95;;;;;;;;;;6272483;22;19999;-93
2022/11/24 06:04:05;;;;;;;15.50;2.20;;;;;;;;;;6270433;22;20019;-93
2022/11/24 06:06:30;;;;;;;12.23;1.80;;;;;;;;;;6270759;22;20003;-92
2022/11/24 06:08:58;;;;;;;16.25;1.58;;;;;;;;;;6271022;22;20007;-92
2022/11/24 06:11:30;;;;;;;14.77;1.77;;;;;;;;;;6271980;22;20081;-95
2022/11/24 06:14:05;;;;;;;13.18;2.03;;;;;;;;;;6271282;22;20015;-93
2022/11/24 06:16:30;;;;;;;12.45;1.70;;;;;;;;;;6272971;22;20008;-93
2022/11/24 06:18:56;;;;;;;17.23;2.97;;;;;;;;;;6273208;22;20056;-93
2022/11/24 06:21:27;;;;;;;23.48;4.22;;;;;;;;;;6274467;22;20410;-93
2022/11/24 06:23:58;;;;;;;14.57;2.33;;;;;;;;;;6273088;22;20238;-92
2022/11/24 06:26:31;;;;;;;14.43;2.67;;;;;;;;;;6273392;22;19995;-93
2022/11/24 06:29:07;;;;;;;19.88;2.45;;;;;;;;;;6270747;22;20434;-94
2022/11/24 06:31:35;;;;;;;12.75;2.53;;;;;;;;;;6272640;22;20003;-93
2022/11/24 06:34:08;;;;;;;20.63;2.40;;;;;;;;;;6273696;22;20069;-93
2022/11/24 06:36:37;;;;;;;19.45;2.53;;;;;;;;;;6271333;22;20057;-93
2022/11/24 06:39:03;;;;;;;24.73;3.58;;;;;;;;;;6272133;22;19999;-93
2022/11/24 06:41:53;;;;;;;19.13;2.45;;;;;;;;;;6272001;22;20000;-93
2022/11/24 06:44:18;;;;;;;17.23;2.65;;;;;;;;;;6272851;22;19999;-93
2022/11/24 06:46:46;;;;;;;11.77;2.47;;;;;;;;;;6271728;22;20066;-92
2022/11/24 06:49:22;;;;;;;18.70;2.80;;;;;;;;;;6271521;22;20057;-93
2022/11/24 06:51:55;;;;;;;18.00;2.58;;;;;;;;;;6273001;22;20451;-93
2022/11/24 06:54:21;;;;;;;21.55;2.45;;;;;;;;;;6274032;22;19999;-93
2022/11/24 06:56:55;;;;;;;22.80;3.00;;;;;;;;;;6270175;22;20003;-95
2022/11/24 07:00:04;;;;;;;18.23;2.17;;;;;;;;;;6274141;22;20065;-94
2022/11/24 07:02:39;;;;;;;15.57;2.70;;;;;;;;;;6273798;22;20769;-95
2022/11/24 07:05:14;;;;;;;16.98;2.70;;;;;;;;;;6274230;22;20008;-94
2022/11/24 07:07:55;;;;;;;20.77;2.85;;;;;;;;;;6273737;22;20004;-94
2022/11/24 07:10:24;;;;;;;18.38;3.13;;;;;;;;;;6248416;22;20000;-94
2022/11/24 07:15:48;;;;;;;19.60;2.35;;;;;;;;;;6275078;22;20039;-94
2022/11/24 07:18:20;;;;;;;17.45;2.60;;;;;;;;;;6248876;22;20093;-95
2022/11/24 07:24:12;;;;;;;17.65;2.90;;;;;;;;;;6275804;22;20038;-95
2022/11/24 07:26:57;;;;;;;16.85;2.10;;;;;;;;;;6249654;22;19995;-95
2022/11/24 07:29:23;;;;;;;17.50;2.55;;;;;;;;;;6248399;22;19999;-94
2022/11/24 07:32:22;;;;;;;19.08;2.30;;;;;;;;;;6274427;22;20360;-95
2022/11/24 07:34:52;;;;;;;14.85;2.42;;;;;;;;;;6274924;22;20000;-94
2022/11/24 07:37:27;;;;;;;13.02;2.47;;;;;;;;;;6275116;22;20004;-96
2022/11/24 07:40:03;;;;;;;;;;;;;;;;;;;;;
2022/11/24 07:42:29;;;;;;;27.35;3.08;;;;;;;;;;6273117;22;20380;-94
2022/11/24 07:45:06;;;;;;;16.52;2.38;;;;;;;;;;6271589;22;20022;-92
2022/11/24 07:47:39;;;;;;;14.38;2.45;;;;;;;;;;6271780;22;19999;-93
2022/11/24 07:50:08;;;;;;;20.35;2.53;;;;;;;;;;6270503;22;20014;-92
2022/11/24 07:52:33;;;;;;;15.45;2.53;;;;;;;;;;6271690;22;20016;-92
2022/11/24 07:55:03;;;;;;;20.00;2.50;;;;;;;;;;6265872;22;20011;-93
2022/11/24 07:57:29;;;;;;;17.95;2.47;;;;;;;;;;6268045;22;20019;-93
2022/11/24 08:00:02;;;;;;;19.30;2.50;;;;;;;;;;6267418;22;19999;-94
2022/11/24 08:02:31;;;;;;;17.85;2.70;;;;;;;;;;6263893;22;20364;-93
2022/11/24 08:05:02;;;;;;;18.33;2.53;;;;;;;;;;6236771;22;20034;-93
2022/11/24 08:07:28;;;;;;;21.35;3.53;;;;;;;;;;6268105;22;20074;-93
2022/11/24 08:09:57;;;;;;;19.13;2.42;;;;;;;;;;6240906;22;20026;-93
2022/11/24 08:12:26;;;;;;;20.25;3.15;;;;;;;;;;6240301;22;20035;-94
2022/11/24 08:14:54;;;;;;;18.77;2.70;;;;;;;;;;6262936;22;20007;-94
2022/11/24 08:17:29;;;;;;;17.25;2.55;;;;;;;;;;6243369;22;20654;-93
2022/11/24 08:20:07;;;;;;;19.58;2.88;;;;;;;;;;6243713;22;20027;-93
2022/11/24 08:22:47;;;;;;;20.73;2.55;;;;;;;;;;6255708;22;19984;-96
2022/11/24 08:25:30;;;;;;;18.80;2.78;;;;;;;;;;6269129;22;19996;-96
2022/11/24 08:31:32;;;;;;;;;;;;;;;;;;;;;
2022/11/24 08:34:16;;;;;;;17.42;2.97;;;;;;;;;;6198152;23;20005;-96
2022/11/24 08:36:42;;;;;;;23.45;2.53;;;;;;;;;;6177990;23;20059;-96
2022/11/24 08:39:29;;;;;;;18.83;2.55;;;;;;;;;;6224357;22;20027;-94
2022/11/24 08:41:53;;;;;;;20.95;2.50;;;;;;;;;;6270408;22;20078;-93
2022/11/24 08:45:06;;;;;;;18.30;2.45;;;;;;;;;;6271809;22;20034;-92
2022/11/24 08:47:35;;;;;;;;;;;;;;;;;;6267788;22;20096;-93
2022/11/24 08:50:10;;;;;;;18.98;2.38;;;;;;;;;;6270144;22;19910;-95
2022/11/24 08:52:49;;;;;;;18.45;3.00;;;;;;;;;;6279788;22;20015;-93
2022/11/24 08:55:23;;;;;;;22.10;2.90;;;;;;;;;;6244958;22;20008;-92
2022/11/24 08:58:19;;;;;;;19.10;2.83;;;;;;;;;;6244103;22;20000;-94
2022/11/24 09:00:48;;;;;;;16.45;2.70;;;;;;;;;;6241419;22;20232;-93
2022/11/24 09:03:20;;;;;;;17.77;3.53;;;;;;;;;;6244533;22;20004;-93
2022/11/24 09:09:03;;;;;;;18.10;3.80;;;;;;;;;;6222803;22;20059;-91
2022/11/24 09:11:29;;;;;;;20.58;3.85;;;;;;;;;;6268655;22;20027;-94
2022/11/24 09:47:28;;;;;;;18.80;4.05;;;;;;;;;;6241481;23;20452;-94
2022/11/24 09:50:26;;;;;;;;;;;;;;;;;;;;;
2022/11/24 09:56:10;;;;;;;22.67;4.10;;;;;;;;;;6241008;23;20014;-89
2022/11/24 09:58:47;;;;;;;19.02;3.45;;;;;;;;;;6208036;23;20008;-88
2022/11/24 10:01:27;;;;;;;20.92;3.63;;;;;;;;;;6208328;23;20012;-88
2022/11/24 10:04:37;;;;;;;29.02;4.53;;;;;;;;;;6202928;23;20007;-89
2022/11/24 10:10:40;;;;;;;24.67;4.38;;;;;;;;;;6230708;23;20148;-87
2022/11/24 10:16:28;;;;;;;;;;;;;;;;;;;;;
2022/11/24 10:35:44;;;;;;;22.35;2.83;;;;;;;;;;6217843;22;20100;-93
2022/11/24 10:38:09;;;;;;;25.15;3.67;;;;;;;;;;6212153;23;20073;-91
2022/11/24 10:40:38;;;;;;;24.20;4.15;;;;;;;;;;6209299;23;20087;-93
2022/11/24 10:43:09;;;;;;;27.63;3.50;;;;;;;;;;6237650;23;19998;-91
2022/11/24 10:45:44;;;;;;;27.05;3.53;;;;;;;;;;6212440;23;20020;-92
2022/11/24 10:48:21;;;;;;;24.92;3.28;;;;;;;;;;6211665;23;20106;-93
2022/11/24 10:50:52;;;;;;;25.05;4.43;;;;;;;;;;6211955;23;19996;-92
2022/11/24 10:53:31;;;;;;;25.98;3.55;;;;;;;;;;6213194;23;20016;-93
2022/11/24 10:55:58;;;;;;;20.70;3.42;;;;;;;;;;6213043;23;20007;-94
2022/11/24 10:58:25;;;;;;;19.23;3.08;;;;;;;;;;6213452;23;20093;-92
2022/11/24 11:00:54;;;;;;;23.08;3.75;;;;;;;;;;6213257;23;20035;-93
2022/11/24 11:03:27;;;;;;;25.52;3.95;;;;;;;;;;6212960;23;20011;-92
2022/11/24 11:05:56;;;;;;;28.75;4.55;;;;;;;;;;6206482;22;20024;-91
2022/11/24 11:08:33;;;;;;;28.08;3.83;;;;;;;;;;6271259;22;20018;-93
2022/11/24 11:11:18;;;;;;;21.23;3.33;;;;;;;;;;6246020;22;20000;-92
2022/11/24 11:13:50;;;;;;;20.58;3.95;;;;;;;;;;6238521;22;20007;-91
2022/11/24 11:16:37;;;;;;;26.17;3.75;;;;;;;;;;6242621;22;20012;-93
2022/11/24 11:19:24;;;;;;;23.23;3.22;;;;;;;;;;6243145;22;20380;-94
2022/11/24 11:21:59;;;;;;;24.08;3.78;;;;;;;;;;6243088;22;20312;-93
2022/11/24 11:59:37;;;;;;;28.08;3.63;;;;;;;;;;6210828;23;20043;-91
2022/11/24 12:02:03;;;;;;;34.03;4.32;;;;;;;;;;6181468;23;20123;-92
2022/11/24 12:04:40;;;;;;;30.15;3.40;;;;;;;;;;6182422;23;20035;-93
2022/11/24 12:07:42;;;;;;;23.63;3.47;;;;;;;;;;6182838;23;20072;-92
2022/11/24 12:10:34;;;;;;;23.58;3.95;;;;;;;;;;6183592;23;19989;-92
2022/11/24 12:13:02;;;;;;;27.95;3.47;;;;;;;;;;6208351;23;20000;-93
2022/11/24 12:15:49;;;;;;;23.20;3.33;;;;;;;;;;6181599;23;20124;-93
2022/11/24 12:18:41;;;;;;;20.80;3.72;;;;;;;;;;6211298;23;20091;-93
2022/11/24 12:21:40;;;;;;;;;;;;;;;;;;;;;
2022/11/24 12:24:42;;;;;;;26.52;3.53;;;;;;;;;;6204632;23;20783;-94
2022/11/24 12:27:26;;;;;;;25.17;4.30;;;;;;;;;;6184025;23;20004;-94
2022/11/24 12:29:56;;;;;;;23.17;3.08;;;;;;;;;;6183105;23;20004;-94
2022/11/24 12:32:43;;;;;;;17.38;3.50;;;;;;;;;;6206720;23;20020;-94
2022/11/24 12:35:18;;;;;;;20.73;3.60;;;;;;;;;;6208495;23;20008;-93
2022/11/24 12:38:07;;;;;;;28.25;3.63;;;;;;;;;;6182914;23;20091;-95
2022/11/24 12:40:51;;;;;;;22.23;3.47;;;;;;;;;;6182732;23;20024;-96
2022/11/24 12:43:34;;;;;;;22.33;3.28;;;;;;;;;;6210348;23;20074;-95
2022/11/24 12:46:34;;;;;;;20.60;3.60;;;;;;;;;;6208440;23;19997;-94
2022/11/24 12:49:09;;;;;;;26.55;3.28;;;;;;;;;;6086406;23;20495;-94
2022/11/24 12:51:43;;;;;;;26.98;3.95;;;;;;;;;;6111978;23;20026;-94
2022/11/24 12:54:13;;;;;;;22.38;3.83;;;;;;;;;;6115181;23;20064;-94
2022/11/24 12:56:47;;;;;;;29.27;3.67;;;;;;;;;;6114623;23;20017;-96
2022/11/24 12:59:13;;;;;;;23.33;3.60;;;;;;;;;;6116297;23;20030;-93
2022/11/24 13:01:56;;;;;;;34.28;4.30;;;;;;;;;;6114085;23;20093;-94
2022/11/24 13:04:21;;;;;;;22.13;3.30;;;;;;;;;;6113653;23;20029;-93
2022/11/24 13:06:59;;;;;;;22.02;3.40;;;;;;;;;;6113853;23;20010;-93
2022/11/24 13:09:36;;;;;;;30.90;4.50;;;;;;;;;;6090170;23;20043;-93
2022/11/24 13:12:06;;;;;;;25.08;3.33;;;;;;;;;;6090146;23;20006;-94
2022/11/24 13:14:37;;;;;;;22.25;3.10;;;;;;;;;;6090142;23;20170;-93
2022/11/24 13:17:32;;;;;;;24.42;3.53;;;;;;;;;;6091301;23;20068;-95
2022/11/24 13:20:19;;;;;;;19.98;3.38;;;;;;;;;;6114063;23;20192;-94
2022/11/24 13:22:48;;;;;;;20.00;3.17;;;;;;;;;;6113821;23;20102;-88
2022/11/24 13:25:20;;;;;;;21.67;3.13;;;;;;;;;;6179240;23;20031;-94
2022/11/24 13:28:08;;;;;;;23.95;4.72;;;;;;;;;;6180779;23;20498;-93
2022/11/24 13:30:33;;;;;;;23.88;4.10;;;;;;;;;;6189883;22;20358;-94
2022/11/24 13:33:11;;;;;;;17.13;3.10;;;;;;;;;;6274030;22;20007;-96
2022/11/24 13:35:54;;;;;;;20.77;3.35;;;;;;;;;;6299850;22;19999;-93
2022/11/24 13:38:42;;;;;;;23.88;3.85;;;;;;;;;;6273182;22;20114;-93
2022/11/24 13:50:14;;;;;;;24.35;3.38;;;;;;;;;;6254114;22;20031;-96
2022/11/24 13:52:40;;;;;;;23.00;3.00;;;;;;;;;;6266056;22;20078;-95
2022/11/24 13:55:12;;;;;;;21.30;3.20;;;;;;;;;;6315317;22;20003;-95
2022/11/24 13:57:41;;;;;;;35.83;3.70;;;;;;;;;;6280810;22;20017;-95
2022/11/24 14:00:21;;;;;;;20.52;3.45;;;;;;;;;;6279185;22;20039;-96
2022/11/24 14:02:47;;;;;;;26.20;3.75;;;;;;;;;;6277614;22;20000;-95
2022/11/24 14:05:20;;;;;;;24.77;3.38;;;;;;;;;;6276239;22;19991;-96
2022/11/24 14:07:48;;;;;;;21.83;3.57;;;;;;;;;;6305199;22;19995;-95
2022/11/24 14:10:22;;;;;;;21.95;3.55;;;;;;;;;;6276458;22;20015;-96
2022/11/24 14:13:07;;;;;;;25.30;3.35;;;;;;;;;;6276518;22;20525;-94
2022/11/24 14:15:34;;;;;;;35.42;3.72;;;;;;;;;;6273782;22;20439;-95
2022/11/24 14:17:59;;;;;;;22.60;3.47;;;;;;;;;;6275006;22;20003;-94
2022/11/24 14:20:34;;;;;;;23.67;3.38;;;;;;;;;;6274744;22;20421;-95
2022/11/24 14:22:59;;;;;;;15.60;2.63;;;;;;;;;;6275210;22;20098;-94
2022/11/24 14:25:31;;;;;;;23.58;3.28;;;;;;;;;;6276504;22;20365;-95
2022/11/24 14:27:57;;;;;;;18.95;2.25;;;;;;;;;;6299659;22;20034;-93
2022/11/24 14:30:24;;;;;;;15.05;2.20;;;;;;;;;;6272993;22;20003;-94
2022/11/24 14:32:57;;;;;;;18.52;2.53;;;;;;;;;;6275361;22;20429;-95
2022/11/24 14:35:27;;;;;;;18.33;2.78;;;;;;;;;;6275534;22;20007;-95
2022/11/24 14:37:53;;;;;;;6.55;0.90;;;;;;;;;;6301653;22;20007;-95
2022/11/24 14:40:37;;;;;;;1.98;0.35;;;;;;;;;;6275134;22;20006;-94
2022/11/24 14:43:03;;;;;;;4.38;0.70;;;;;;;;;;6276948;22;20003;-94
2022/11/24 14:45:28;;;;;;;2.67;0.50;;;;;;;;;;6303366;22;19995;-94
2022/11/24 14:47:54;;;;;;;2.22;0.40;;;;;;;;;;6275247;22;20002;-95
2022/11/24 14:50:21;;;;;;;4.00;0.38;;;;;;;;;;6277539;22;20021;-94
2022/11/24 14:52:54;;;;;;;2.20;0.40;;;;;;;;;;6276151;22;20082;-94
2022/11/24 14:55:27;;;;;;;3.22;0.50;;;;;;;;;;6303717;22;20007;-94
2022/11/24 14:57:52;;;;;;;4.63;1.33;;;;;;;;;;6303735;22;19999;-94
2022/11/24 15:00:18;;;;;;;3.38;0.60;;;;;;;;;;6303323;22;20523;-95
2022/11/24 15:02:54;;;;;;;4.50;0.82;;;;;;;;;;6304620;22;20321;-95
2022/11/24 15:05:20;;;;;;;4.00;0.60;;;;;;;;;;6276698;22;19999;-93
2022/11/24 15:07:46;;;;;;;5.78;0.90;;;;;;;;;;6277567;22;19999;-94
2022/11/24 15:10:30;;;;;;;6.82;0.85;;;;;;;;;;6306030;22;20007;-94
2022/11/24 15:12:57;;;;;;;5.82;0.95;;;;;;;;;;6303568;22;20121;-94
2022/11/24 15:15:28;;;;;;;6.13;0.80;;;;;;;;;;6277254;22;20015;-94
2022/11/24 15:17:57;;;;;;;9.88;1.10;;;;;;;;;;6303900;22;20073;-94
2022/11/24 15:20:23;;;;;;;6.78;1.05;;;;;;;;;;6276030;22;20424;-94
2022/11/24 15:22:51;;;;;;;4.18;0.88;;;;;;;;;;6304832;22;20029;-94
2022/11/24 15:25:30;;;;;;;8.23;0.93;;;;;;;;;;6276298;22;20007;-94
2022/11/24 15:27:55;;;;;;;6.28;0.82;;;;;;;;;;6276539;22;20086;-94
2022/11/24 15:30:23;;;;;;;8.98;1.08;;;;;;;;;;6303313;22;20026;-93
2022/11/24 15:32:58;;;;;;;4.05;1.00;;;;;;;;;;6277156;22;20040;-93
2022/11/24 15:35:24;;;;;;;7.47;1.02;;;;;;;;;;6304080;22;20003;-95
2022/11/24 15:37:50;;;;;;;6.03;0.95;;;;;;;;;;6304504;22;20106;-94
2022/11/24 15:40:16;;;;;;;6.10;1.00;;;;;;;;;;6277271;22;20046;-94
2022/11/24 15:42:42;;;;;;;6.32;0.82;;;;;;;;;;6277777;22;19999;-93
2022/11/24 15:45:11;;;;;;;9.30;0.90;;;;;;;;;;6306175;22;20068;-94
2022/11/24 15:47:50;;;;;;;7.57;1.02;;;;;;;;;;6304929;22;20000;-95
2022/11/24 15:50:20;;;;;;;7.40;1.08;;;;;;;;;;6274094;22;20030;-94
2022/11/24 15:52:46;;;;;;;8.93;1.10;;;;;;;;;;6274338;22;20441;-92
2022/11/24 15:55:21;;;;;;;4.72;0.98;;;;;;;;;;6290858;22;20003;-95
2022/11/24 15:57:47;;;;;;;5.95;1.10;;;;;;;;;;6296952;22;20014;-94
2022/11/24 16:00:14;;;;;;;6.43;1.33;;;;;;;;;;6295867;22;20456;-94
2022/11/24 16:02:40;;;;;;;6.70;1.30;;;;;;;;;;6295954;22;20003;-94
2022/11/24 16:05:05;;;;;;;6.15;1.05;;;;;;;;;;6297928;22;20023;-94
2022/11/24 16:07:31;;;;;;;4.53;0.80;;;;;;;;;;6293164;22;20337;-94
2022/11/24 16:09:56;;;;;;;7.82;1.08;;;;;;;;;;6274471;22;20091;-94
2022/11/24 16:12:23;;;;;;;10.82;0.95;;;;;;;;;;6273689;22;20015;-94
2022/11/24 16:14:49;;;;;;;7.70;0.90;;;;;;;;;;6276629;22;19999;-93
2022/11/24 16:17:14;;;;;;;9.68;1.10;;;;;;;;;;6275074;22;20022;-94
2022/11/24 16:19:39;;;;;;;7.55;1.63;;;;;;;;;;6277795;22;20008;-95
2022/11/24 16:22:07;;;;;;;7.60;0.95;;;;;;;;;;6282211;22;20004;-96
2022/11/24 16:24:38;;;;;;;6.18;1.00;;;;;;;;;;6305380;22;20012;-95
2022/11/24 16:27:09;;;;;;;8.40;1.38;;;;;;;;;;6281877;22;19999;-95
2022/11/24 16:29:34;;;;;;;7.18;1.08;;;;;;;;;;6283266;22;20011;-96
2022/11/24 16:32:01;;;;;;;10.57;1.58;;;;;;;;;;6287531;22;20069;-95
2022/11/24 16:34:40;;;;;;;7.97;1.35;;;;;;;;;;6288124;22;19999;-96
2022/11/24 16:37:21;;;;;;;6.82;1.00;;;;;;;;;;6262023;22;20097;-95
2022/11/24 16:40:01;;;;;;;10.52;1.35;;;;;;;;;;6246443;22;20020;-94
2022/11/24 16:42:29;;;;;;;9.38;1.25;;;;;;;;;;6247026;22;20082;-94
2022/11/24 16:44:55;;;;;;;10.68;1.50;;;;;;;;;;6271460;22;20003;-94
2022/11/24 16:47:50;;;;;;;5.95;1.05;;;;;;;;;;6272581;22;20077;-95
2022/11/24 16:50:29;;;;;;;11.98;1.60;;;;;;;;;;6270919;22;20056;-95
2022/11/24 16:52:57;;;;;;;6.15;1.05;;;;;;;;;;6272818;22;20003;-94
2022/11/24 16:55:28;;;;;;;12.05;1.40;;;;;;;;;;6270602;22;20008;-93
2022/11/24 16:58:07;;;;;;;11.18;1.45;;;;;;;;;;6270803;22;20035;-93
2022/11/24 17:00:57;;;;;;;;;;;;;;;;;;;;;
2022/11/24 17:03:23;;;;;;;11.55;1.45;;;;;;;;;;6270742;22;20071;-94
2022/11/24 17:05:56;;;;;;;8.90;1.45;;;;;;;;;;6271440;22;20490;-93
2022/11/24 17:08:47;;;;;;;9.20;1.60;;;;;;;;;;6270716;22;20049;-94
2022/11/24 17:11:22;;;;;;;7.07;1.27;;;;;;;;;;6280574;22;20007;-93
2022/11/24 17:13:57;;;;;;;8.38;1.50;;;;;;;;;;6272030;22;20004;-93
2022/11/24 17:16:28;;;;;;;7.18;1.23;;;;;;;;;;6272106;22;20008;-95
2022/11/24 17:18:57;;;;;;;8.68;1.55;;;;;;;;;;6262913;22;20022;-96
2022/11/24 17:21:25;;;;;;;13.05;1.65;;;;;;;;;;6259408;22;20004;-93
2022/11/24 17:23:57;;;;;;;10.75;1.65;;;;;;;;;;6268838;22;19996;-93
2022/11/24 17:26:23;;;;;;;9.65;1.90;;;;;;;;;;6270304;22;19995;-93
2022/11/24 17:28:52;;;;;;;8.05;1.30;;;;;;;;;;6268209;22;20015;-93
2022/11/24 17:31:44;;;;;;;14.32;1.65;;;;;;;;;;6268978;22;20010;-92
2022/11/24 17:34:13;;;;;;;8.02;1.40;;;;;;;;;;6270158;22;20018;-93
2022/11/24 17:36:44;;;;;;;12.45;1.70;;;;;;;;;;6268834;22;20027;-91
2022/11/24 17:39:12;;;;;;;12.80;2.40;;;;;;;;;;6269130;22;20004;-91
2022/11/24 17:41:37;;;;;;;9.32;2.20;;;;;;;;;;6269713;22;20077;-91
2022/11/24 17:44:10;;;;;;;10.25;1.80;;;;;;;;;;6269443;22;20008;-95
2022/11/24 17:46:36;;;;;;;12.38;1.52;;;;;;;;;;6268512;22;20441;-91
2022/11/24 17:49:05;;;;;;;10.07;1.25;;;;;;;;;;6269195;22;20016;-92
2022/11/24 17:51:31;;;;;;;8.55;1.52;;;;;;;;;;6266057;22;20329;-93
2022/11/24 17:54:02;;;;;;;9.65;1.80;;;;;;;;;;6269835;22;20189;-93
2022/11/24 17:56:39;;;;;;;10.88;1.65;;;;;;;;;;6270817;22;20854;-94
2022/11/24 17:59:05;;;;;;;10.85;1.85;;;;;;;;;;6270956;22;20437;-94
2022/11/24 18:49:52;;;;;;;7.55;1.48;;;;;;;;;;6129320;23;20080;-96
2022/11/24 18:58:36;;;;;;;12.27;2.13;;;;;;;;;;6284315;22;20133;-96
2022/11/24 19:01:19;;;;;;;7.32;1.70;;;;;;;;;;6265895;22;20003;-96
2022/11/24 19:04:24;;;;;;;10.20;1.95;;;;;;;;;;6285835;22;19999;-96
2022/11/24 19:07:15;;;;;;;12.57;1.92;;;;;;;;;;6284645;22;20033;-96
2022/11/24 19:10:01;;;;;;;8.73;1.67;;;;;;;;;;6270536;22;20371;-96
2022/11/24 19:12:36;;;;;;;7.25;1.50;;;;;;;;;;6279633;22;20000;-96
2022/11/24 19:15:24;;;;;;;;;;;;;;;;;;;;;
2022/11/24 19:18:10;;;;;;;8.68;1.40;;;;;;;;;;6214991;22;20019;-96
2022/11/24 19:23:58;;;;;;;7.50;1.30;;;;;;;;;;6298318;22;20015;-95
2022/11/24 19:29:39;;;;;;;11.38;1.83;;;;;;;;;;6311047;22;20080;-96
2022/11/24 19:32:17;;;;;;;;;;;;;;;;;;;;;
2022/11/24 19:35:06;;;;;;;8.05;1.70;;;;;;;;;;6301685;22;20070;-96
2022/11/24 19:37:47;;;;;;;15.45;1.85;;;;;;;;;;6282503;22;20488;-95
2022/11/24 19:40:47;;;;;;;10.15;1.83;;;;;;;;;;6283747;22;20007;-96
2022/11/24 19:43:57;;;;;;;12.80;2.20;;;;;;;;;;6314136;22;19999;-96
2022/11/24 19:46:50;;;;;;;9.75;2.10;;;;;;;;;;6311728;22;19999;-96
2022/11/24 20:00:14;;;;;;;;;;;;;;;;;;;;;
2022/11/24 20:18:26;;;;;;;16.95;2.65;;;;;;;;;;6243959;23;20049;-96
2022/11/24 20:23:56;;;;;;;19.00;2.95;;;;;;;;;;6236587;22;20003;-95
2022/11/24 20:26:38;;;;;;;;;;;;;;;;;;;;;
2022/11/24 20:32:19;;;;;;;19.55;2.80;;;;;;;;;;6252466;22;20077;-96
2022/11/24 20:35:31;;;;;;;17.52;2.33;;;;;;;;;;6243423;22;20008;-96
2022/11/24 20:44:59;;;;;;;16.02;2.35;;;;;;;;;;6252055;22;20067;-96
2022/11/24 20:51:14;;;;;;;18.63;3.03;;;;;;;;;;6283934;22;20052;-95
2022/11/24 21:12:56;;;;;;;14.70;3.75;;;;;;;;;;6246792;23;20003;-95
2022/11/24 21:18:38;;;;;;;21.98;4.47;;;;;;;;;;6222114;23;20723;-96
2022/11/24 21:24:49;;;;;;;;;;;;;;;;;;;;;
2022/11/24 21:27:47;;;;;;;;;;;;;;;;;;;;;
2022/11/24 21:30:27;;;;;;;15.80;3.55;;;;;;;;;;6096338;23;20773;-95
2022/11/24 21:37:07;;;;;;;13.43;3.22;;;;;;;;;;5985724;23;20008;-95
2022/11/24 22:49:00;;;;;;;13.63;2.55;;;;;;;;;;6240153;23;20131;-92
2022/11/24 22:58:21;;;;;;;16.23;2.95;;;;;;;;;;6241911;23;20121;-93
2022/11/24 23:04:44;;;;;;;;;;;;;;;;;;;;;
2022/11/24 23:07:22;;;;;;;21.27;2.75;;;;;;;;;;6144428;23;20084;-91
2022/11/24 23:10:02;;;;;;;14.20;2.28;;;;;;;;;;6124345;23;20017;-93
2022/11/24 23:16:05;;;;;;;17.13;2.53;;;;;;;;;;6148009;23;20012;-92
2022/11/24 23:19:19;;;;;;;;;;;;;;;;;;;;;
2022/11/24 23:22:11;;;;;;;13.63;2.60;;;;;;;;;;6027713;23;20094;-92
2022/11/24 23:45:06;;;;;;;17.73;2.70;;;;;;;;;;5947206;24;20020;-94
2022/11/24 23:51:04;;;;;;;;;;;;;;;;;;;;;
2022/11/24 23:53:39;;;;;;;17.80;2.47;;;;;;;;;;5934850;24;20119;-92
2022/11/24 23:56:37;;;;;;;;;;;;;;;;;;;;;